sensor_id;sensor_type;location;lat;lon;timestamp;P1;durP1;ratioP1;P2;durP2;ratioP2
6306;SDS011;3186;54.062;9.962;2023-04-25T00:01:17;13.37;;;4.60;;
6306;SDS011;3186;54.062;9.962;2023-04-25T00:03:44;9.73;;;3.90;;
6306;SDS011;3186;54.062;9.962;2023-04-25T00:06:10;12.97;;;4.30;;
6306;SDS011;3186;54.062;9.962;2023-04-25T00:08:37;10.37;;;3.53;;
6306;SDS011;3186;54.062;9.962;2023-04-25T00:11:03;18.00;;;4.60;;
6306;SDS011;3186;54.062;9.962;2023-04-25T00:13:29;11.73;;;3.73;;
6306;SDS011;3186;54.062;9.962;2023-04-25T00:15:55;11.03;;;3.80;;
6306;SDS011;3186;54.062;9.962;2023-04-25T00:18:25;20.07;;;4.40;;
6306;SDS011;3186;54.062;9.962;2023-04-25T00:20:54;13.57;;;4.97;;
6306;SDS011;3186;54.062;9.962;2023-04-25T00:23:20;13.33;;;4.10;;
6306;SDS011;3186;54.062;9.962;2023-04-25T00:25:47;14.30;;;4.47;;
6306;SDS011;3186;54.062;9.962;2023-04-25T00:28:14;17.90;;;4.30;;
6306;SDS011;3186;54.062;9.962;2023-04-25T00:30:41;14.57;;;4.23;;
6306;SDS011;3186;54.062;9.962;2023-04-25T00:33:07;16.53;;;4.50;;
6306;SDS011;3186;54.062;9.962;2023-04-25T00:35:33;15.50;;;4.47;;
6306;SDS011;3186;54.062;9.962;2023-04-25T00:38:00;17.03;;;5.00;;
6306;SDS011;3186;54.062;9.962;2023-04-25T00:40:26;11.97;;;4.33;;
6306;SDS011;3186;54.062;9.962;2023-04-25T00:42:52;11.57;;;4.73;;
6306;SDS011;3186;54.062;9.962;2023-04-25T00:45:19;15.63;;;4.27;;
6306;SDS011;3186;54.062;9.962;2023-04-25T00:47:45;15.43;;;4.33;;
6306;SDS011;3186;54.062;9.962;2023-04-25T00:50:12;15.40;;;4.63;;
6306;SDS011;3186;54.062;9.962;2023-04-25T00:52:40;19.07;;;5.27;;
6306;SDS011;3186;54.062;9.962;2023-04-25T00:55:09;11.33;;;4.57;;
6306;SDS011;3186;54.062;9.962;2023-04-25T00:57:35;14.37;;;4.30;;
6306;SDS011;3186;54.062;9.962;2023-04-25T01:00:04;10.63;;;4.40;;
6306;SDS011;3186;54.062;9.962;2023-04-25T01:02:32;14.17;;;4.27;;
6306;SDS011;3186;54.062;9.962;2023-04-25T01:04:58;18.33;;;4.80;;
6306;SDS011;3186;54.062;9.962;2023-04-25T01:07:24;17.63;;;4.70;;
6306;SDS011;3186;54.062;9.962;2023-04-25T01:09:51;13.90;;;4.70;;
6306;SDS011;3186;54.062;9.962;2023-04-25T01:12:17;16.67;;;4.50;;
6306;SDS011;3186;54.062;9.962;2023-04-25T01:14:44;8.67;;;4.17;;
6306;SDS011;3186;54.062;9.962;2023-04-25T01:17:10;16.60;;;5.13;;
6306;SDS011;3186;54.062;9.962;2023-04-25T01:19:36;12.33;;;4.77;;
6306;SDS011;3186;54.062;9.962;2023-04-25T01:22:03;17.17;;;5.43;;
6306;SDS011;3186;54.062;9.962;2023-04-25T01:24:30;19.07;;;4.97;;
6306;SDS011;3186;54.062;9.962;2023-04-25T01:26:58;12.03;;;4.30;;
6306;SDS011;3186;54.062;9.962;2023-04-25T01:29:25;15.33;;;4.93;;
6306;SDS011;3186;54.062;9.962;2023-04-25T01:31:52;14.27;;;5.00;;
6306;SDS011;3186;54.062;9.962;2023-04-25T01:34:19;14.33;;;4.13;;
6306;SDS011;3186;54.062;9.962;2023-04-25T01:36:46;15.30;;;5.07;;
6306;SDS011;3186;54.062;9.962;2023-04-25T01:39:14;24.30;;;5.00;;
6306;SDS011;3186;54.062;9.962;2023-04-25T01:41:41;15.27;;;4.73;;
6306;SDS011;3186;54.062;9.962;2023-04-25T01:44:07;15.43;;;5.00;;
6306;SDS011;3186;54.062;9.962;2023-04-25T01:46:33;18.37;;;5.30;;
6306;SDS011;3186;54.062;9.962;2023-04-25T01:48:59;13.20;;;5.57;;
6306;SDS011;3186;54.062;9.962;2023-04-25T01:51:25;15.27;;;5.07;;
6306;SDS011;3186;54.062;9.962;2023-04-25T01:53:51;10.93;;;5.17;;
6306;SDS011;3186;54.062;9.962;2023-04-25T01:56:18;14.87;;;5.23;;
6306;SDS011;3186;54.062;9.962;2023-04-25T01:58:44;22.87;;;5.67;;
6306;SDS011;3186;54.062;9.962;2023-04-25T02:01:23;20.73;;;5.17;;
6306;SDS011;3186;54.062;9.962;2023-04-25T02:04:07;17.60;;;4.97;;
6306;SDS011;3186;54.062;9.962;2023-04-25T02:06:35;14.30;;;5.03;;
6306;SDS011;3186;54.062;9.962;2023-04-25T02:09:01;14.17;;;5.03;;
6306;SDS011;3186;54.062;9.962;2023-04-25T02:11:27;14.20;;;5.20;;
6306;SDS011;3186;54.062;9.962;2023-04-25T02:14:12;15.20;;;5.30;;
6306;SDS011;3186;54.062;9.962;2023-04-25T02:16:44;18.70;;;4.87;;
6306;SDS011;3186;54.062;9.962;2023-04-25T02:19:10;17.67;;;5.87;;
6306;SDS011;3186;54.062;9.962;2023-04-25T02:21:36;17.33;;;5.10;;
6306;SDS011;3186;54.062;9.962;2023-04-25T02:24:03;18.47;;;5.57;;
6306;SDS011;3186;54.062;9.962;2023-04-25T02:26:29;10.57;;;4.50;;
6306;SDS011;3186;54.062;9.962;2023-04-25T02:28:56;14.33;;;4.80;;
6306;SDS011;3186;54.062;9.962;2023-04-25T02:31:22;18.30;;;5.17;;
6306;SDS011;3186;54.062;9.962;2023-04-25T02:33:50;11.90;;;4.73;;
6306;SDS011;3186;54.062;9.962;2023-04-25T02:36:15;13.43;;;4.47;;
6306;SDS011;3186;54.062;9.962;2023-04-25T02:38:41;17.80;;;4.70;;
6306;SDS011;3186;54.062;9.962;2023-04-25T02:41:07;15.17;;;5.20;;
6306;SDS011;3186;54.062;9.962;2023-04-25T02:43:33;11.20;;;5.37;;
6306;SDS011;3186;54.062;9.962;2023-04-25T02:45:59;15.03;;;4.73;;
6306;SDS011;3186;54.062;9.962;2023-04-25T02:48:25;22.57;;;5.17;;
6306;SDS011;3186;54.062;9.962;2023-04-25T02:50:51;19.87;;;4.70;;
6306;SDS011;3186;54.062;9.962;2023-04-25T02:53:17;25.73;;;5.43;;
6306;SDS011;3186;54.062;9.962;2023-04-25T02:55:47;18.47;;;4.67;;
6306;SDS011;3186;54.062;9.962;2023-04-25T02:58:13;17.67;;;5.43;;
6306;SDS011;3186;54.062;9.962;2023-04-25T03:00:46;14.77;;;5.40;;
6306;SDS011;3186;54.062;9.962;2023-04-25T03:03:12;15.37;;;5.20;;
6306;SDS011;3186;54.062;9.962;2023-04-25T03:05:38;21.63;;;6.00;;
6306;SDS011;3186;54.062;9.962;2023-04-25T03:08:04;14.47;;;4.73;;
6306;SDS011;3186;54.062;9.962;2023-04-25T03:10:32;15.03;;;4.73;;
6306;SDS011;3186;54.062;9.962;2023-04-25T03:13:02;19.20;;;5.33;;
6306;SDS011;3186;54.062;9.962;2023-04-25T03:15:28;15.90;;;5.50;;
6306;SDS011;3186;54.062;9.962;2023-04-25T03:17:54;12.83;;;4.90;;
6306;SDS011;3186;54.062;9.962;2023-04-25T03:20:22;17.20;;;5.40;;
6306;SDS011;3186;54.062;9.962;2023-04-25T03:22:48;16.97;;;4.57;;
6306;SDS011;3186;54.062;9.962;2023-04-25T03:25:14;9.77;;;4.50;;
6306;SDS011;3186;54.062;9.962;2023-04-25T03:27:40;18.30;;;4.63;;
6306;SDS011;3186;54.062;9.962;2023-04-25T03:30:06;13.23;;;4.83;;
6306;SDS011;3186;54.062;9.962;2023-04-25T03:32:34;14.27;;;4.73;;
6306;SDS011;3186;54.062;9.962;2023-04-25T03:35:00;23.10;;;5.50;;
6306;SDS011;3186;54.062;9.962;2023-04-25T03:37:27;13.47;;;4.40;;
6306;SDS011;3186;54.062;9.962;2023-04-25T03:39:53;15.63;;;4.57;;
6306;SDS011;3186;54.062;9.962;2023-04-25T03:42:21;16.40;;;4.63;;
6306;SDS011;3186;54.062;9.962;2023-04-25T03:44:49;14.33;;;5.13;;
6306;SDS011;3186;54.062;9.962;2023-04-25T03:47:15;11.13;;;4.70;;
6306;SDS011;3186;54.062;9.962;2023-04-25T03:49:41;18.80;;;5.20;;
6306;SDS011;3186;54.062;9.962;2023-04-25T03:52:07;18.90;;;4.63;;
6306;SDS011;3186;54.062;9.962;2023-04-25T03:54:37;16.40;;;4.57;;
6306;SDS011;3186;54.062;9.962;2023-04-25T03:57:12;14.00;;;4.73;;
6306;SDS011;3186;54.062;9.962;2023-04-25T03:59:38;15.60;;;4.90;;
6306;SDS011;3186;54.062;9.962;2023-04-25T04:02:06;17.00;;;4.50;;
6306;SDS011;3186;54.062;9.962;2023-04-25T04:04:34;15.07;;;4.53;;
6306;SDS011;3186;54.062;9.962;2023-04-25T04:07:00;19.63;;;4.50;;
6306;SDS011;3186;54.062;9.962;2023-04-25T04:09:29;10.97;;;4.57;;
6306;SDS011;3186;54.062;9.962;2023-04-25T04:11:57;11.60;;;5.13;;
6306;SDS011;3186;54.062;9.962;2023-04-25T04:14:23;14.70;;;4.70;;
6306;SDS011;3186;54.062;9.962;2023-04-25T04:16:50;12.90;;;4.10;;
6306;SDS011;3186;54.062;9.962;2023-04-25T04:19:17;13.77;;;5.10;;
6306;SDS011;3186;54.062;9.962;2023-04-25T04:21:49;11.30;;;4.57;;
6306;SDS011;3186;54.062;9.962;2023-04-25T04:24:15;16.37;;;4.77;;
6306;SDS011;3186;54.062;9.962;2023-04-25T04:26:56;17.60;;;5.10;;
6306;SDS011;3186;54.062;9.962;2023-04-25T04:29:29;20.70;;;4.97;;
6306;SDS011;3186;54.062;9.962;2023-04-25T04:32:04;16.70;;;4.43;;
6306;SDS011;3186;54.062;9.962;2023-04-25T04:34:31;15.17;;;4.77;;
6306;SDS011;3186;54.062;9.962;2023-04-25T04:36:59;21.37;;;4.80;;
6306;SDS011;3186;54.062;9.962;2023-04-25T04:39:25;15.60;;;4.33;;
6306;SDS011;3186;54.062;9.962;2023-04-25T04:42:03;13.43;;;4.93;;
6306;SDS011;3186;54.062;9.962;2023-04-25T04:44:49;10.53;;;4.30;;
6306;SDS011;3186;54.062;9.962;2023-04-25T04:47:41;15.53;;;4.23;;
6306;SDS011;3186;54.062;9.962;2023-04-25T04:50:26;16.80;;;4.57;;
6306;SDS011;3186;54.062;9.962;2023-04-25T04:53:12;20.57;;;4.93;;
6306;SDS011;3186;54.062;9.962;2023-04-25T04:55:50;15.93;;;4.40;;
6306;SDS011;3186;54.062;9.962;2023-04-25T04:58:31;10.40;;;4.37;;
6306;SDS011;3186;54.062;9.962;2023-04-25T05:01:10;17.80;;;4.80;;
6306;SDS011;3186;54.062;9.962;2023-04-25T05:03:55;15.03;;;4.40;;
6306;SDS011;3186;54.062;9.962;2023-04-25T05:06:43;12.70;;;4.47;;
6306;SDS011;3186;54.062;9.962;2023-04-25T05:09:27;17.03;;;4.40;;
6306;SDS011;3186;54.062;9.962;2023-04-25T05:12:06;13.83;;;4.50;;
6306;SDS011;3186;54.062;9.962;2023-04-25T05:14:49;10.33;;;3.77;;
6306;SDS011;3186;54.062;9.962;2023-04-25T05:17:33;8.90;;;4.23;;
6306;SDS011;3186;54.062;9.962;2023-04-25T05:20:08;13.03;;;4.13;;
6306;SDS011;3186;54.062;9.962;2023-04-25T05:22:59;15.17;;;4.37;;
6306;SDS011;3186;54.062;9.962;2023-04-25T05:25:58;13.90;;;4.73;;
6306;SDS011;3186;54.062;9.962;2023-04-25T05:28:36;15.37;;;4.93;;
6306;SDS011;3186;54.062;9.962;2023-04-25T05:31:14;19.00;;;4.57;;
6306;SDS011;3186;54.062;9.962;2023-04-25T05:33:51;11.80;;;4.17;;
6306;SDS011;3186;54.062;9.962;2023-04-25T05:36:18;21.67;;;4.37;;
6306;SDS011;3186;54.062;9.962;2023-04-25T05:38:45;11.33;;;4.17;;
6306;SDS011;3186;54.062;9.962;2023-04-25T05:41:13;9.17;;;3.67;;
6306;SDS011;3186;54.062;9.962;2023-04-25T05:43:56;13.47;;;4.80;;
6306;SDS011;3186;54.062;9.962;2023-04-25T05:46:34;17.90;;;4.93;;
6306;SDS011;3186;54.062;9.962;2023-04-25T05:49:14;21.70;;;5.07;;
6306;SDS011;3186;54.062;9.962;2023-04-25T05:51:53;13.37;;;4.20;;
6306;SDS011;3186;54.062;9.962;2023-04-25T05:54:46;15.80;;;4.27;;
6306;SDS011;3186;54.062;9.962;2023-04-25T05:57:19;13.30;;;4.80;;
6306;SDS011;3186;54.062;9.962;2023-04-25T05:59:46;13.13;;;4.23;;
6306;SDS011;3186;54.062;9.962;2023-04-25T06:02:13;17.97;;;5.40;;
6306;SDS011;3186;54.062;9.962;2023-04-25T06:04:40;14.73;;;4.53;;
6306;SDS011;3186;54.062;9.962;2023-04-25T06:07:06;11.97;;;4.57;;
6306;SDS011;3186;54.062;9.962;2023-04-25T06:09:32;12.90;;;4.23;;
6306;SDS011;3186;54.062;9.962;2023-04-25T06:11:57;16.63;;;4.50;;
6306;SDS011;3186;54.062;9.962;2023-04-25T06:14:23;18.27;;;4.37;;
6306;SDS011;3186;54.062;9.962;2023-04-25T06:16:50;18.97;;;4.37;;
6306;SDS011;3186;54.062;9.962;2023-04-25T06:19:16;8.67;;;3.20;;
6306;SDS011;3186;54.062;9.962;2023-04-25T06:21:43;13.53;;;4.00;;
6306;SDS011;3186;54.062;9.962;2023-04-25T06:24:09;12.40;;;3.73;;
6306;SDS011;3186;54.062;9.962;2023-04-25T06:26:35;11.37;;;3.77;;
6306;SDS011;3186;54.062;9.962;2023-04-25T06:29:02;9.20;;;3.53;;
6306;SDS011;3186;54.062;9.962;2023-04-25T06:31:28;13.83;;;4.30;;
6306;SDS011;3186;54.062;9.962;2023-04-25T06:33:55;9.30;;;3.67;;
6306;SDS011;3186;54.062;9.962;2023-04-25T06:36:23;11.50;;;4.13;;
6306;SDS011;3186;54.062;9.962;2023-04-25T06:38:52;6.43;;;3.37;;
6306;SDS011;3186;54.062;9.962;2023-04-25T06:41:19;8.60;;;3.70;;
6306;SDS011;3186;54.062;9.962;2023-04-25T06:43:46;11.23;;;3.50;;
6306;SDS011;3186;54.062;9.962;2023-04-25T06:46:29;13.00;;;4.13;;
6306;SDS011;3186;54.062;9.962;2023-04-25T06:48:57;13.00;;;3.80;;
6306;SDS011;3186;54.062;9.962;2023-04-25T06:51:23;15.30;;;4.07;;
6306;SDS011;3186;54.062;9.962;2023-04-25T06:53:51;12.83;;;3.80;;
6306;SDS011;3186;54.062;9.962;2023-04-25T06:56:25;12.47;;;3.57;;
6306;SDS011;3186;54.062;9.962;2023-04-25T06:59:12;7.00;;;3.10;;
6306;SDS011;3186;54.062;9.962;2023-04-25T07:01:39;10.73;;;3.57;;
6306;SDS011;3186;54.062;9.962;2023-04-25T07:04:18;14.27;;;3.50;;
6306;SDS011;3186;54.062;9.962;2023-04-25T07:06:48;13.13;;;4.03;;
6306;SDS011;3186;54.062;9.962;2023-04-25T07:09:17;10.77;;;3.47;;
6306;SDS011;3186;54.062;9.962;2023-04-25T07:11:46;13.77;;;3.73;;
6306;SDS011;3186;54.062;9.962;2023-04-25T07:14:12;13.23;;;4.47;;
6306;SDS011;3186;54.062;9.962;2023-04-25T07:16:39;15.27;;;3.87;;
6306;SDS011;3186;54.062;9.962;2023-04-25T07:19:05;12.07;;;3.60;;
6306;SDS011;3186;54.062;9.962;2023-04-25T07:21:31;15.30;;;3.67;;
6306;SDS011;3186;54.062;9.962;2023-04-25T07:24:00;8.60;;;3.13;;
6306;SDS011;3186;54.062;9.962;2023-04-25T07:26:31;15.90;;;3.77;;
6306;SDS011;3186;54.062;9.962;2023-04-25T07:29:15;9.47;;;3.63;;
6306;SDS011;3186;54.062;9.962;2023-04-25T07:31:41;13.60;;;3.53;;
6306;SDS011;3186;54.062;9.962;2023-04-25T07:34:07;9.00;;;3.83;;
6306;SDS011;3186;54.062;9.962;2023-04-25T07:36:34;10.67;;;3.93;;
6306;SDS011;3186;54.062;9.962;2023-04-25T07:39:00;12.33;;;3.80;;
6306;SDS011;3186;54.062;9.962;2023-04-25T07:41:26;15.13;;;3.60;;
6306;SDS011;3186;54.062;9.962;2023-04-25T07:43:52;15.87;;;3.60;;
6306;SDS011;3186;54.062;9.962;2023-04-25T07:46:19;13.80;;;4.20;;
6306;SDS011;3186;54.062;9.962;2023-04-25T07:48:45;20.00;;;4.80;;
6306;SDS011;3186;54.062;9.962;2023-04-25T07:51:10;8.63;;;3.97;;
6306;SDS011;3186;54.062;9.962;2023-04-25T07:53:37;18.87;;;3.77;;
6306;SDS011;3186;54.062;9.962;2023-04-25T07:56:08;11.33;;;3.83;;
6306;SDS011;3186;54.062;9.962;2023-04-25T07:58:37;14.90;;;3.77;;
6306;SDS011;3186;54.062;9.962;2023-04-25T08:01:06;13.40;;;3.70;;
6306;SDS011;3186;54.062;9.962;2023-04-25T08:03:55;9.77;;;3.50;;
6306;SDS011;3186;54.062;9.962;2023-04-25T08:06:46;11.53;;;3.50;;
6306;SDS011;3186;54.062;9.962;2023-04-25T08:09:18;6.77;;;3.50;;
6306;SDS011;3186;54.062;9.962;2023-04-25T08:11:45;12.37;;;3.50;;
6306;SDS011;3186;54.062;9.962;2023-04-25T08:14:14;11.33;;;3.53;;
6306;SDS011;3186;54.062;9.962;2023-04-25T08:16:42;10.27;;;3.00;;
6306;SDS011;3186;54.062;9.962;2023-04-25T08:19:07;8.37;;;3.33;;
6306;SDS011;3186;54.062;9.962;2023-04-25T08:21:34;6.83;;;3.37;;
6306;SDS011;3186;54.062;9.962;2023-04-25T08:24:03;8.33;;;3.00;;
6306;SDS011;3186;54.062;9.962;2023-04-25T08:26:33;5.27;;;3.00;;
6306;SDS011;3186;54.062;9.962;2023-04-25T08:28:59;7.03;;;2.97;;
6306;SDS011;3186;54.062;9.962;2023-04-25T08:31:25;10.30;;;3.83;;
6306;SDS011;3186;54.062;9.962;2023-04-25T08:33:56;15.27;;;3.97;;
6306;SDS011;3186;54.062;9.962;2023-04-25T08:36:36;7.23;;;3.30;;
6306;SDS011;3186;54.062;9.962;2023-04-25T08:39:02;14.47;;;4.03;;
6306;SDS011;3186;54.062;9.962;2023-04-25T08:41:29;8.53;;;3.30;;
6306;SDS011;3186;54.062;9.962;2023-04-25T08:43:55;8.03;;;2.90;;
6306;SDS011;3186;54.062;9.962;2023-04-25T08:46:25;12.13;;;3.77;;
6306;SDS011;3186;54.062;9.962;2023-04-25T08:49:04;7.23;;;2.73;;
6306;SDS011;3186;54.062;9.962;2023-04-25T08:51:31;11.70;;;3.80;;
6306;SDS011;3186;54.062;9.962;2023-04-25T08:54:08;14.80;;;3.50;;
6306;SDS011;3186;54.062;9.962;2023-04-25T08:56:37;11.63;;;3.77;;
6306;SDS011;3186;54.062;9.962;2023-04-25T08:59:04;12.93;;;3.73;;
6306;SDS011;3186;54.062;9.962;2023-04-25T09:01:34;15.47;;;3.73;;
6306;SDS011;3186;54.062;9.962;2023-04-25T09:04:01;12.83;;;3.57;;
6306;SDS011;3186;54.062;9.962;2023-04-25T09:06:27;13.83;;;4.30;;
6306;SDS011;3186;54.062;9.962;2023-04-25T09:09:01;9.70;;;3.07;;
6306;SDS011;3186;54.062;9.962;2023-04-25T09:11:32;8.03;;;3.37;;
6306;SDS011;3186;54.062;9.962;2023-04-25T09:14:15;12.77;;;2.90;;
6306;SDS011;3186;54.062;9.962;2023-04-25T09:17:00;16.77;;;3.27;;
6306;SDS011;3186;54.062;9.962;2023-04-25T09:19:42;12.57;;;3.23;;
6306;SDS011;3186;54.062;9.962;2023-04-25T09:22:18;6.83;;;2.83;;
6306;SDS011;3186;54.062;9.962;2023-04-25T09:24:47;7.47;;;2.13;;
6306;SDS011;3186;54.062;9.962;2023-04-25T09:27:19;4.73;;;2.10;;
6306;SDS011;3186;54.062;9.962;2023-04-25T09:29:56;10.97;;;2.73;;
6306;SDS011;3186;54.062;9.962;2023-04-25T09:32:25;10.57;;;2.40;;
6306;SDS011;3186;54.062;9.962;2023-04-25T09:34:55;14.73;;;2.40;;
6306;SDS011;3186;54.062;9.962;2023-04-25T09:40:05;6.90;;;2.40;;
6306;SDS011;3186;54.062;9.962;2023-04-25T09:42:41;6.37;;;2.30;;
6306;SDS011;3186;54.062;9.962;2023-04-25T09:45:07;13.37;;;2.47;;
6306;SDS011;3186;54.062;9.962;2023-04-25T09:47:38;5.30;;;2.03;;
6306;SDS011;3186;54.062;9.962;2023-04-25T09:50:13;5.53;;;2.17;;
6306;SDS011;3186;54.062;9.962;2023-04-25T09:52:42;6.33;;;1.67;;
6306;SDS011;3186;54.062;9.962;2023-04-25T09:55:22;5.40;;;2.30;;
6306;SDS011;3186;54.062;9.962;2023-04-25T09:57:49;4.10;;;1.43;;
6306;SDS011;3186;54.062;9.962;2023-04-25T10:00:20;8.57;;;2.07;;
6306;SDS011;3186;54.062;9.962;2023-04-25T10:02:46;7.10;;;2.27;;
6306;SDS011;3186;54.062;9.962;2023-04-25T10:05:32;9.30;;;2.53;;
6306;SDS011;3186;54.062;9.962;2023-04-25T10:08:02;9.43;;;3.17;;
6306;SDS011;3186;54.062;9.962;2023-04-25T10:10:31;13.00;;;2.67;;
6306;SDS011;3186;54.062;9.962;2023-04-25T10:13:02;6.50;;;2.83;;
6306;SDS011;3186;54.062;9.962;2023-04-25T10:15:30;11.07;;;2.83;;
6306;SDS011;3186;54.062;9.962;2023-04-25T10:17:58;5.50;;;2.50;;
6306;SDS011;3186;54.062;9.962;2023-04-25T10:20:24;8.00;;;2.90;;
6306;SDS011;3186;54.062;9.962;2023-04-25T10:22:50;7.43;;;3.03;;
6306;SDS011;3186;54.062;9.962;2023-04-25T10:25:19;8.80;;;2.63;;
6306;SDS011;3186;54.062;9.962;2023-04-25T10:27:45;6.73;;;2.33;;
6306;SDS011;3186;54.062;9.962;2023-04-25T10:30:13;8.20;;;2.90;;
6306;SDS011;3186;54.062;9.962;2023-04-25T10:32:43;9.50;;;2.60;;
6306;SDS011;3186;54.062;9.962;2023-04-25T10:38:00;10.03;;;2.60;;
6306;SDS011;3186;54.062;9.962;2023-04-25T10:40:29;6.03;;;2.30;;
6306;SDS011;3186;54.062;9.962;2023-04-25T10:42:57;7.40;;;2.37;;
6306;SDS011;3186;54.062;9.962;2023-04-25T10:45:54;8.07;;;2.43;;
6306;SDS011;3186;54.062;9.962;2023-04-25T10:48:26;4.90;;;2.23;;
6306;SDS011;3186;54.062;9.962;2023-04-25T10:51:09;6.63;;;2.40;;
6306;SDS011;3186;54.062;9.962;2023-04-25T10:56:21;7.50;;;2.33;;
6306;SDS011;3186;54.062;9.962;2023-04-25T10:58:47;6.77;;;2.20;;
6306;SDS011;3186;54.062;9.962;2023-04-25T11:01:13;5.70;;;2.40;;
6306;SDS011;3186;54.062;9.962;2023-04-25T11:03:56;3.57;;;1.93;;
6306;SDS011;3186;54.062;9.962;2023-04-25T11:06:30;6.30;;;2.07;;
6306;SDS011;3186;54.062;9.962;2023-04-25T11:09:11;6.93;;;2.10;;
6306;SDS011;3186;54.062;9.962;2023-04-25T11:11:40;10.37;;;2.00;;
6306;SDS011;3186;54.062;9.962;2023-04-25T11:14:06;3.83;;;1.30;;
6306;SDS011;3186;54.062;9.962;2023-04-25T11:16:32;1.80;;;1.37;;
6306;SDS011;3186;54.062;9.962;2023-04-25T11:18:58;4.47;;;1.87;;
6306;SDS011;3186;54.062;9.962;2023-04-25T11:21:27;3.97;;;1.67;;
6306;SDS011;3186;54.062;9.962;2023-04-25T11:23:55;2.93;;;2.20;;
6306;SDS011;3186;54.062;9.962;2023-04-25T11:26:21;7.27;;;2.20;;
6306;SDS011;3186;54.062;9.962;2023-04-25T11:28:48;8.40;;;2.13;;
6306;SDS011;3186;54.062;9.962;2023-04-25T11:31:14;12.83;;;2.53;;
6306;SDS011;3186;54.062;9.962;2023-04-25T11:33:40;8.47;;;2.53;;
6306;SDS011;3186;54.062;9.962;2023-04-25T11:36:07;8.50;;;2.30;;
6306;SDS011;3186;54.062;9.962;2023-04-25T11:38:34;5.37;;;2.40;;
6306;SDS011;3186;54.062;9.962;2023-04-25T11:41:00;5.27;;;2.27;;
6306;SDS011;3186;54.062;9.962;2023-04-25T11:43:25;6.90;;;2.40;;
6306;SDS011;3186;54.062;9.962;2023-04-25T11:45:51;8.60;;;1.97;;
6306;SDS011;3186;54.062;9.962;2023-04-25T11:48:20;6.40;;;2.30;;
6306;SDS011;3186;54.062;9.962;2023-04-25T11:50:46;7.47;;;2.70;;
6306;SDS011;3186;54.062;9.962;2023-04-25T11:53:12;7.77;;;2.53;;
6306;SDS011;3186;54.062;9.962;2023-04-25T11:55:38;8.17;;;2.40;;
6306;SDS011;3186;54.062;9.962;2023-04-25T11:58:05;6.30;;;2.30;;
6306;SDS011;3186;54.062;9.962;2023-04-25T12:00:31;6.23;;;2.53;;
6306;SDS011;3186;54.062;9.962;2023-04-25T12:02:57;6.13;;;2.17;;
6306;SDS011;3186;54.062;9.962;2023-04-25T12:05:24;8.17;;;2.50;;
6306;SDS011;3186;54.062;9.962;2023-04-25T12:07:51;6.13;;;2.03;;
6306;SDS011;3186;54.062;9.962;2023-04-25T12:10:18;6.00;;;1.97;;
6306;SDS011;3186;54.062;9.962;2023-04-25T12:12:45;6.43;;;1.80;;
6306;SDS011;3186;54.062;9.962;2023-04-25T12:15:15;8.63;;;2.30;;
6306;SDS011;3186;54.062;9.962;2023-04-25T12:17:48;10.03;;;2.10;;
6306;SDS011;3186;54.062;9.962;2023-04-25T12:20:19;4.97;;;2.10;;
6306;SDS011;3186;54.062;9.962;2023-04-25T12:22:51;9.40;;;1.70;;
6306;SDS011;3186;54.062;9.962;2023-04-25T12:25:37;8.53;;;2.23;;
6306;SDS011;3186;54.062;9.962;2023-04-25T12:33:27;7.90;;;2.50;;
6306;SDS011;3186;54.062;9.962;2023-04-25T12:35:54;8.57;;;2.20;;
6306;SDS011;3186;54.062;9.962;2023-04-25T12:38:25;8.17;;;2.93;;
6306;SDS011;3186;54.062;9.962;2023-04-25T12:40:55;8.37;;;2.30;;
6306;SDS011;3186;54.062;9.962;2023-04-25T12:43:22;9.10;;;2.73;;
6306;SDS011;3186;54.062;9.962;2023-04-25T12:45:54;5.90;;;2.83;;
6306;SDS011;3186;54.062;9.962;2023-04-25T12:48:21;7.03;;;2.30;;
6306;SDS011;3186;54.062;9.962;2023-04-25T12:50:48;9.57;;;2.73;;
6306;SDS011;3186;54.062;9.962;2023-04-25T12:53:19;7.07;;;2.47;;
6306;SDS011;3186;54.062;9.962;2023-04-25T12:55:46;7.43;;;2.17;;
6306;SDS011;3186;54.062;9.962;2023-04-25T12:58:15;8.73;;;2.60;;
6306;SDS011;3186;54.062;9.962;2023-04-25T13:00:43;3.50;;;2.00;;
6306;SDS011;3186;54.062;9.962;2023-04-25T13:03:09;8.87;;;2.27;;
6306;SDS011;3186;54.062;9.962;2023-04-25T13:05:36;9.73;;;2.63;;
6306;SDS011;3186;54.062;9.962;2023-04-25T13:08:03;2.60;;;1.63;;
6306;SDS011;3186;54.062;9.962;2023-04-25T13:10:29;8.97;;;2.17;;
6306;SDS011;3186;54.062;9.962;2023-04-25T13:12:55;7.30;;;2.40;;
6306;SDS011;3186;54.062;9.962;2023-04-25T13:15:21;9.33;;;2.80;;
6306;SDS011;3186;54.062;9.962;2023-04-25T13:17:48;12.07;;;2.80;;
6306;SDS011;3186;54.062;9.962;2023-04-25T13:20:14;9.53;;;2.77;;
6306;SDS011;3186;54.062;9.962;2023-04-25T13:22:41;8.43;;;2.53;;
6306;SDS011;3186;54.062;9.962;2023-04-25T13:25:08;7.10;;;2.83;;
6306;SDS011;3186;54.062;9.962;2023-04-25T13:27:34;8.37;;;2.67;;
6306;SDS011;3186;54.062;9.962;2023-04-25T13:30:02;6.80;;;2.70;;
6306;SDS011;3186;54.062;9.962;2023-04-25T13:32:35;9.87;;;3.27;;
6306;SDS011;3186;54.062;9.962;2023-04-25T13:35:09;9.63;;;2.50;;
6306;SDS011;3186;54.062;9.962;2023-04-25T13:37:37;9.00;;;3.00;;
6306;SDS011;3186;54.062;9.962;2023-04-25T13:40:04;6.13;;;2.47;;
6306;SDS011;3186;54.062;9.962;2023-04-25T13:42:34;8.83;;;2.83;;
6306;SDS011;3186;54.062;9.962;2023-04-25T13:45:00;3.97;;;2.00;;
6306;SDS011;3186;54.062;9.962;2023-04-25T13:47:26;6.93;;;2.10;;
6306;SDS011;3186;54.062;9.962;2023-04-25T13:49:52;6.47;;;2.80;;
6306;SDS011;3186;54.062;9.962;2023-04-25T13:52:18;7.97;;;2.23;;
6306;SDS011;3186;54.062;9.962;2023-04-25T13:54:44;4.20;;;2.00;;
6306;SDS011;3186;54.062;9.962;2023-04-25T13:57:10;6.80;;;2.73;;
6306;SDS011;3186;54.062;9.962;2023-04-25T13:59:37;14.40;;;2.97;;
6306;SDS011;3186;54.062;9.962;2023-04-25T14:02:03;11.00;;;2.87;;
6306;SDS011;3186;54.062;9.962;2023-04-25T14:04:29;6.50;;;2.67;;
6306;SDS011;3186;54.062;9.962;2023-04-25T14:06:55;7.73;;;2.63;;
6306;SDS011;3186;54.062;9.962;2023-04-25T14:09:21;7.50;;;2.27;;
6306;SDS011;3186;54.062;9.962;2023-04-25T14:11:54;7.83;;;2.77;;
6306;SDS011;3186;54.062;9.962;2023-04-25T14:14:20;6.57;;;2.50;;
6306;SDS011;3186;54.062;9.962;2023-04-25T14:16:47;8.37;;;2.37;;
6306;SDS011;3186;54.062;9.962;2023-04-25T14:19:14;6.73;;;2.33;;
6306;SDS011;3186;54.062;9.962;2023-04-25T14:21:40;7.53;;;2.67;;
6306;SDS011;3186;54.062;9.962;2023-04-25T14:24:06;8.40;;;2.87;;
6306;SDS011;3186;54.062;9.962;2023-04-25T14:26:33;5.37;;;2.20;;
6306;SDS011;3186;54.062;9.962;2023-04-25T14:29:00;7.53;;;2.30;;
6306;SDS011;3186;54.062;9.962;2023-04-25T14:31:26;6.03;;;2.60;;
6306;SDS011;3186;54.062;9.962;2023-04-25T14:33:53;5.53;;;2.50;;
6306;SDS011;3186;54.062;9.962;2023-04-25T14:36:18;9.70;;;2.70;;
6306;SDS011;3186;54.062;9.962;2023-04-25T14:38:45;10.47;;;2.80;;
6306;SDS011;3186;54.062;9.962;2023-04-25T14:41:11;8.83;;;3.07;;
6306;SDS011;3186;54.062;9.962;2023-04-25T14:43:37;9.53;;;2.70;;
6306;SDS011;3186;54.062;9.962;2023-04-25T14:46:05;5.37;;;2.60;;
6306;SDS011;3186;54.062;9.962;2023-04-25T14:48:32;10.30;;;2.77;;
6306;SDS011;3186;54.062;9.962;2023-04-25T14:50:58;7.77;;;2.70;;
6306;SDS011;3186;54.062;9.962;2023-04-25T14:53:25;4.60;;;2.30;;
6306;SDS011;3186;54.062;9.962;2023-04-25T14:55:52;6.80;;;2.70;;
6306;SDS011;3186;54.062;9.962;2023-04-25T14:58:17;9.20;;;2.70;;
6306;SDS011;3186;54.062;9.962;2023-04-25T15:00:43;7.50;;;2.53;;
6306;SDS011;3186;54.062;9.962;2023-04-25T15:03:10;7.53;;;2.70;;
6306;SDS011;3186;54.062;9.962;2023-04-25T15:05:38;7.70;;;2.50;;
6306;SDS011;3186;54.062;9.962;2023-04-25T15:08:05;12.67;;;2.67;;
6306;SDS011;3186;54.062;9.962;2023-04-25T15:10:31;7.90;;;2.17;;
6306;SDS011;3186;54.062;9.962;2023-04-25T15:12:57;10.53;;;3.00;;
6306;SDS011;3186;54.062;9.962;2023-04-25T15:15:23;11.83;;;2.93;;
6306;SDS011;3186;54.062;9.962;2023-04-25T15:17:49;7.40;;;2.70;;
6306;SDS011;3186;54.062;9.962;2023-04-25T15:20:15;5.43;;;2.40;;
6306;SDS011;3186;54.062;9.962;2023-04-25T15:22:42;7.77;;;3.07;;
6306;SDS011;3186;54.062;9.962;2023-04-25T15:25:10;14.60;;;3.50;;
6306;SDS011;3186;54.062;9.962;2023-04-25T15:27:36;9.33;;;2.73;;
6306;SDS011;3186;54.062;9.962;2023-04-25T15:30:06;9.17;;;2.70;;
6306;SDS011;3186;54.062;9.962;2023-04-25T15:32:33;4.90;;;2.43;;
6306;SDS011;3186;54.062;9.962;2023-04-25T15:35:01;10.77;;;3.50;;